Latest Weather Observations for Mortlake

IDV60801

Issued at 9:32 am EST Saturday 30 July 2016 (issued every 30 minutes, with the page automatically refreshed every 10 minutes)

About weather observations | Map of weather stations | Latest weather observations for VIC | Other Formats
Station Details ID: 090176 Name: MORTLAKE RACECOURSE Lat: -38.07 Lon: 142.77 Height: 130.0 m
Data from the previous 72 hours. | See also: Recent months at Mortlake
Date/Time
EST
Temp
°C
App
Temp
°C
Dew
Point
°C
Rel
Hum
%
Delta-T
°C
Wind Press
QNH
hPa
Press
MSL
hPa
Rain since
9am
mm
Dir  Spd
km/h
Gust
km/h
Spd
kts
Gust
kts
30/09:30am 10.4 8.1 10.4 100 0.0 N 13 20 7 11 1018.8 1019.1 0.0
30/09:00am 9.8 6.6 9.8 100 0.0 N 17 22 9 12 1018.8 1019.1 0.0
30/08:30am 9.3 6.7 9.3 100 0.0 N 13 22 7 12 1019.1 1019.4 0.0
30/08:00am 8.8 6.1 8.8 100 0.0 N 13 17 7 9 1019.4 1019.7 0.0
30/07:30am 7.7 5.8 7.7 100 0.0 NNE 7 9 4 5 1019.6 1019.9 0.0
30/07:00am 8.6 5.8 8.6 100 0.0 N 13 17 7 9 1019.7 1020.0 0.0
30/06:30am 8.4 4.8 8.4 100 0.0 N 17 22 9 12 1019.9 1020.2 0.0
30/06:00am 7.6 5.0 7.6 100 0.0 N 11 15 6 8 1019.9 1020.2 0.0
30/05:30am 6.4 3.5 6.4 100 0.0 N 11 15 6 8 1019.8 1020.1 0.0
30/05:00am 6.0 3.8 6.0 100 0.0 N 7 11 4 6 1020.0 1020.3 0.0
30/04:30am 6.2 3.2 6.2 100 0.0 N 11 13 6 7 1020.3 1020.6 0.0
30/04:00am 7.0 4.6 7.0 100 0.0 N 9 11 5 6 1020.4 1020.7 0.0
30/03:30am 7.2 5.2 7.2 100 0.0 N 7 9 4 5 1020.5 1020.8 0.0
30/03:00am 7.1 4.7 7.1 100 0.0 N 9 9 5 5 1020.7 1021.0 0.0
30/02:30am 6.1 3.5 6.1 100 0.0 N 9 9 5 5 1021.0 1021.3 0.0
30/02:00am 6.2 4.0 6.2 100 0.0 N 7 7 4 4 1021.1 1021.4 0.0
30/01:30am 5.8 3.5 5.8 100 0.0 N 7 9 4 5 1021.2 1021.5 0.0
30/01:00am 6.6 4.5 6.6 100 0.0 N 7 7 4 4 1021.2 1021.5 0.0
30/12:30am 7.2 5.2 7.2 100 0.0 N 7 7 4 4 1021.4 1021.7 0.0
30/12:00am 6.9 4.9 6.9 100 0.0 NNW 7 9 4 5 1021.9 1022.1 0.0
 
Date/Time
EST
Temp
°C
App
Temp
°C
Dew
Point
°C
Rel
Hum
%
Delta-T
°C
Wind Press
QNH
hPa
Press
MSL
hPa
Rain since
9am
mm
Dir  Spd
km/h
Gust
km/h
Spd
kts
Gust
kts
29/11:30pm 7.1 5.1 7.1 100 0.0 NNW 7 9 4 5 1022.0 1022.2 0.0
29/11:00pm 7.4 5.7 7.4 100 0.0 NNW 6 6 3 3 1022.0 1022.2 0.0
29/10:30pm 7.1 5.3 7.1 100 0.0 NNW 6 7 3 4 1022.0 1022.2 0.0
29/10:00pm 7.0 5.0 7.0 100 0.0 NNW 7 9 4 5 1021.9 1022.1 0.0
29/09:30pm 7.3 5.3 7.3 100 0.0 NW 7 7 4 4 1021.7 1022.0 0.0
29/09:00pm 7.8 6.1 7.7 99 0.0 NW 6 7 3 4 1021.7 1022.0 0.0
29/08:30pm 8.2 5.9 7.6 96 0.3 WNW 9 11 5 6 1021.5 1021.8 0.0
29/08:00pm 10.0 8.4 8.6 91 0.7 WNW 7 7 4 4 1021.4 1021.7 0.0
29/07:30pm 11.2 9.5 9.8 91 0.7 WNW 9 13 5 7 1021.3 1021.6 0.0
29/07:00pm 11.9 10.6 10.1 89 0.9 W 7 13 4 7 1021.1 1021.4 0.0
29/06:30pm 12.0 10.7 10.1 88 1.0 W 7 11 4 6 1020.7 1021.0 0.0
29/06:00pm 12.0 10.7 9.9 87 1.1 WSW 7 9 4 5 1020.5 1020.8 0.0
29/05:30pm 12.2 10.1 9.8 85 1.2 SW 11 15 6 8 1020.2 1020.5 0.0
29/05:00pm 12.8 10.3 9.6 81 1.6 WSW 13 20 7 11 1020.0 1020.3 0.0
29/04:30pm 13.3 11.0 10.3 82 1.6 WSW 13 17 7 9 1019.8 1020.1 0.0
29/04:00pm 14.0 10.1 9.4 74 2.4 WSW 20 28 11 15 1019.7 1020.0 0.0
29/03:30pm 14.2 10.2 9.0 71 2.7 W 20 30 11 16 1019.6 1019.9 0.0
29/03:00pm 12.9 9.1 9.0 77 2.0 W 19 32 10 17 1019.6 1019.9 0.0
29/02:30pm 13.0 9.9 10.4 84 1.4 WSW 17 24 9 13 1019.5 1019.8 0.0
29/02:00pm 13.0 11.1 11.7 92 0.7 W 13 19 7 10 1019.5 1019.8 0.0
29/01:30pm 12.1 10.2 11.9 99 0.1 WSW 13 20 7 11 1019.8 1020.1 0.0
29/01:00pm 12.1 7.2 11.2 94 0.5 SW 28 37 15 20 1020.0 1020.3 0.0
29/12:30pm 14.9 12.0 11.1 78 2.0 W 17 28 9 15 1020.0 1020.3 0.0
29/12:00pm 13.1 8.9 9.9 81 1.6 W 22 37 12 20 1020.4 1020.7 0.0
29/11:30am 13.3 9.5 9.7 79 1.9 W 20 32 11 17 1020.6 1020.9 0.0
29/11:00am 13.5 10.1 11.4 87 1.1 WNW 20 33 11 18 1020.7 1021.0 0.0
29/10:30am 12.1 9.9 12.1 100 0.0 WNW 15 20 8 11 1020.8 1021.1 0.0
29/10:00am 11.6 8.5 11.6 100 0.0 NW 19 24 10 13 1020.9 1021.2 0.0
29/09:30am 11.1 8.6 11.1 100 0.0 WNW 15 19 8 10 1020.8 1021.1 0.0
29/09:00am 10.6 8.0 10.6 100 0.0 NW 15 19 8 10 1020.9 1021.2 0.4
29/08:30am 10.4 7.3 10.4 100 0.0 NW 17 24 9 13 1020.6 1020.9 0.2
29/08:00am 10.3 6.6 10.3 100 0.0 NW 20 28 11 15 1020.5 1020.8 0.2
29/07:30am 10.3 6.6 10.3 100 0.0 NW 20 28 11 15 1020.1 1020.4 0.2
29/07:00am 10.3 6.8 10.3 100 0.0 NW 19 30 10 16 1019.9 1020.2 0.0
29/06:30am 10.4 6.4 10.4 100 0.0 NW 22 30 12 16 1019.8 1020.1 0.0
29/06:00am 10.3 6.3 10.3 100 0.0 NW 22 30 12 16 1019.6 1019.9 0.0
29/05:30am 10.2 6.1 10.2 100 0.0 NW 22 32 12 17 1019.7 1020.0 0.0
29/05:00am 10.1 5.6 10.1 100 0.0 NW 24 33 13 18 1019.6 1019.9 0.0
29/04:30am 10.1 6.0 10.1 100 0.0 NW 22 32 12 17 1019.7 1020.0 0.0
29/04:00am 10.0 5.5 10.0 100 0.0 NW 24 32 13 17 1019.8 1020.1 0.0
29/03:30am 10.2 6.1 10.2 100 0.0 NW 22 30 12 16 1020.0 1020.3 0.0
29/03:00am 10.3 5.8 10.0 98 0.2 NW 24 33 13 18 1020.2 1020.5 0.0
29/02:30am 10.3 6.2 10.0 98 0.2 NW 22 32 12 17 1020.3 1020.6 0.0
29/02:00am 10.2 5.7 10.1 99 0.1 NW 24 35 13 19 1020.6 1020.9 0.0
29/01:30am 9.8 6.0 9.7 99 0.1 NW 20 30 11 16 1020.6 1020.9 0.0
29/01:00am 9.8 6.1 9.3 97 0.2 NW 19 28 10 15 1020.8 1021.1 0.0
29/12:30am 10.0 6.2 9.7 98 0.2 NW 20 30 11 16 1020.9 1021.2 0.0
29/12:00am 9.4 6.0 9.1 98 0.1 NW 17 20 9 11 1021.2 1021.5 0.0
 
Date/Time
EST
Temp
°C
App
Temp
°C
Dew
Point
°C
Rel
Hum
%
Delta-T
°C
Wind Press
QNH
hPa
Press
MSL
hPa
Rain since
9am
mm
Dir  Spd
km/h
Gust
km/h
Spd
kts
Gust
kts
28/11:30pm 10.4 6.1 9.3 93 0.6 NW 22 30 12 16 1021.5 1021.8 0.0
28/11:00pm 9.6 5.1 8.7 94 0.4 NW 22 28 12 15 1021.5 1021.8 0.0
28/10:30pm 9.8 5.9 8.6 92 0.6 NW 19 24 10 13 1021.9 1022.1 0.0
28/10:00pm 9.9 5.7 8.2 89 0.8 NW 20 26 11 14 1022.0 1022.2 0.0
28/09:30pm 10.1 6.4 7.9 86 1.1 NW 17 22 9 12 1022.2 1022.4 0.0
28/09:00pm 10.4 6.1 7.8 84 1.3 NW 20 26 11 14 1022.1 1022.3 0.0
28/08:30pm 11.5 7.0 8.4 81 1.5 NW 22 30 12 16 1022.4 1022.6 0.0
28/08:00pm 11.3 7.3 8.3 82 1.5 NW 19 30 10 16 1022.5 1022.7 0.0
28/07:30pm 11.8 7.9 8.8 82 1.5 NW 19 26 10 14 1022.6 1022.8 0.0
28/07:00pm 12.1 8.1 8.9 81 1.6 NW 20 28 11 15 1022.5 1022.7 0.0
28/06:30pm 12.2 8.2 8.9 80 1.7 NW 20 28 11 15 1022.3 1022.5 0.0
28/06:00pm 12.0 8.5 8.8 81 1.6 NW 17 24 9 13 1022.2 1022.4 0.0
28/05:30pm 12.8 9.5 9.4 80 1.7 WNW 17 24 9 13 1022.2 1022.4 0.0
28/05:00pm 13.1 8.8 9.4 78 1.9 WNW 22 32 12 17 1022.1 1022.3 0.0
28/04:30pm 13.2 9.2 10.4 83 1.5 WNW 22 33 12 18 1021.9 1022.1 0.0
28/04:00pm 13.5 9.6 10.7 83 1.5 WNW 22 30 12 16 1022.0 1022.2 0.0
28/03:30pm 13.9 9.2 10.5 80 1.8 NW 26 35 14 19 1021.9 1022.1 0.0
28/03:00pm 14.7 10.4 10.7 77 2.1 WNW 24 32 13 17 1021.7 1022.0 0.0
28/02:30pm 14.5 10.8 10.1 75 2.3 WNW 20 37 11 20 1021.7 1022.0 0.0
28/02:00pm 13.9 9.4 9.9 77 2.1 WNW 24 37 13 20 1022.2 1022.4 0.0
28/01:30pm 13.0 8.1 9.8 81 1.6 WNW 26 39 14 21 1022.4 1022.6 0.0
28/01:00pm 13.1 8.0 10.6 85 1.3 WNW 28 41 15 22 1022.7 1022.9 0.0
28/12:30pm 12.4 7.7 9.4 82 1.5 WNW 24 41 13 22 1023.0 1023.2 0.0
28/12:00pm 12.2 8.0 9.6 84 1.3 WNW 22 33 12 18 1023.4 1023.6 0.0
28/11:30am 11.1 7.4 10.3 95 0.4 WNW 20 28 11 15 1023.7 1023.9 0.0
28/11:00am 11.3 6.6 9.4 88 1.0 WNW 24 33 13 18 1023.8 1024.0 0.0
28/10:30am 10.5 6.9 9.7 95 0.4 WNW 19 26 10 14 1023.8 1024.0 0.0
28/10:00am 10.5 6.6 9.3 92 0.6 NW 20 28 11 15 1023.7 1023.9 0.0
28/09:30am 10.1 6.3 9.0 93 0.5 WNW 19 30 10 16 1023.7 1023.9 0.0
28/09:00am 9.5 5.5 8.9 96 0.3 WNW 20 28 11 15 1023.4 1023.6 0.0
28/08:30am 9.1 5.2 8.6 97 0.2 NW 19 26 10 14 1023.1 1023.3 0.0
28/08:00am 9.0 4.9 8.7 98 0.1 NW 20 28 11 15 1022.9 1023.1 0.0
28/07:30am 8.5 4.6 8.5 100 0.0 NW 19 26 10 14 1022.8 1023.0 0.0
28/07:00am 8.6 4.5 8.6 100 0.0 NW 20 28 11 15 1022.6 1022.8 0.0
28/06:30am 8.3 4.1 8.3 100 0.0 NW 20 28 11 15 1022.5 1022.7 0.0
28/06:00am 8.6 4.7 8.6 100 0.0 WNW 19 26 10 14 1022.5 1022.7 0.0
28/05:30am 8.7 4.6 8.7 100 0.0 WNW 20 30 11 16 1022.2 1022.4 0.0
28/05:00am 8.4 4.8 8.4 100 0.0 NW 17 24 9 13 1022.1 1022.3 0.0
28/04:30am 8.6 4.5 8.6 100 0.0 WNW 20 28 11 15 1022.1 1022.3 0.0
28/04:00am 8.6 4.5 8.6 100 0.0 NW 20 30 11 16 1022.0 1022.2 0.0
28/03:30am 8.3 3.7 8.3 100 0.0 WNW 22 32 12 17 1022.0 1022.2 0.0
28/03:00am 8.3 4.3 8.3 100 0.0 NW 19 24 10 13 1022.0 1022.2 0.0
28/02:30am 8.4 4.2 8.4 100 0.0 NW 20 30 11 16 1022.0 1022.2 0.0
28/02:00am 8.7 4.2 8.7 100 0.0 NW 22 33 12 18 1022.1 1022.3 0.0
28/01:30am 8.6 4.5 8.6 100 0.0 NW 20 30 11 16 1022.0 1022.2 0.0
28/01:00am 8.6 4.5 8.6 100 0.0 NW 20 32 11 17 1022.1 1022.3 0.0
28/12:30am 8.3 4.1 8.3 100 0.0 NW 20 26 11 14 1022.2 1022.4 0.0
28/12:00am 8.1 4.4 8.1 100 0.0 NW 17 26 9 14 1022.3 1022.5 0.0
 
Date/Time
EST
Temp
°C
App
Temp
°C
Dew
Point
°C
Rel
Hum
%
Delta-T
°C
Wind Press
QNH
hPa
Press
MSL
hPa
Rain since
9am
mm
Dir  Spd
km/h
Gust
km/h
Spd
kts
Gust
kts
27/11:30pm 8.2 4.6 8.2 100 0.0 WNW 17 24 9 13 1022.2 1022.4 0.0
27/11:00pm 8.2 4.6 8.2 100 0.0 NW 17 22 9 12 1022.3 1022.5 0.0
27/10:30pm 8.2 4.6 8.2 100 0.0 NW 17 24 9 13 1022.2 1022.4 0.0
27/10:00pm 8.2 4.0 8.2 100 0.0 NW 20 30 11 16 1022.0 1022.2 0.0
27/09:30pm 8.0 3.7 8.0 100 0.0 WNW 20 26 11 14 1021.9 1022.1 0.0
27/09:00pm 7.9 4.2 7.9 100 0.0 NW 17 24 9 13 1022.0 1022.2 0.0
27/08:30pm 7.9 3.8 7.9 100 0.0 NW 19 24 10 13 1022.2 1022.4 0.0
27/08:00pm 8.1 4.3 7.5 96 0.3 WNW 17 20 9 11 1022.1 1022.3 0.0
27/07:30pm 8.4 4.5 6.9 90 0.7 WNW 17 24 9 13 1022.0 1022.2 0.0
27/07:00pm 8.2 3.9 7.0 92 0.6 WNW 19 24 10 13 1021.2 1021.5 0.0
27/06:30pm 8.8 5.0 5.7 81 1.4 WNW 15 20 8 11 1020.7 1021.0 0.0
27/06:00pm 8.9 4.3 5.6 80 1.5 WNW 19 28 10 15 1020.0 1020.3 0.0
27/05:30pm 9.2 4.6 5.6 78 1.6 W 19 28 10 15 1019.9 1020.2 0.0
27/05:00pm 9.0 4.8 5.7 80 1.5 WNW 17 24 9 13 1019.4 1019.7 0.0
27/04:30pm 9.1 4.0 5.8 80 1.5 W 22 35 12 19 1019.6 1019.9 0.0
27/04:00pm 9.7 5.4 5.1 73 2.1 W 17 33 9 18 1019.2 1019.5 0.0
27/03:30pm 9.6 4.3 5.2 74 2.0 W 22 37 12 20 1019.0 1019.3 0.0
27/03:00pm 9.8 5.1 5.2 73 2.1 WSW 19 35 10 19 1018.6 1018.9 0.0
27/02:30pm 10.1 4.8 5.1 71 2.3 W 22 35 12 19 1018.1 1018.3 0.0
27/02:00pm 9.6 4.7 5.2 74 2.0 WSW 20 33 11 18 1018.0 1018.2 0.0
27/01:30pm 9.1 3.1 5.3 77 1.7 W 26 37 14 20 1017.8 1018.0 0.0
27/01:00pm 8.5 3.7 7.3 92 0.6 WSW 22 37 12 20 1017.7 1017.9 0.0
27/12:44pm 9.2 2.6 4.2 71 2.2 WSW 28 48 15 26 1017.8 1018.0 0.0
27/12:30pm 10.5 5.3 5.3 70 2.4 WSW 22 33 12 18 1017.5 1017.7 0.0
27/12:00pm 9.2 4.6 5.8 79 1.6 SW 19 28 10 15 1017.4 1017.6 0.0
27/11:30am 9.0 4.2 5.6 79 1.6 WSW 20 28 11 15 1017.1 1017.3 0.0
27/11:00am 9.9 4.9 4.7 70 2.3 WSW 20 33 11 18 1016.8 1017.0 0.0
27/10:30am 8.9 3.8 4.3 73 2.0 WSW 20 30 11 16 1016.4 1016.6 0.0
27/10:00am 8.9 4.7 5.8 81 1.4 SW 17 24 9 13 1016.1 1016.3 0.0

Other Formats:

Comma delimited format used in spreadsheet applications
http://www.bom.gov.au/fwo/IDV60801/IDV60801.94840.axf

JavaScript Object Notation format (JSON) in row-major order
http://www.bom.gov.au/fwo/IDV60801/IDV60801.94840.json